createdAt,value
2023-07-14T00:00:17.735Z,13.27
2023-07-14T00:03:02.643Z,13.67
2023-07-14T00:05:46.221Z,13.50
2023-07-14T00:08:31.963Z,13.70
2023-07-14T00:11:15.807Z,14.67
2023-07-14T00:13:58.919Z,13.97
2023-07-14T00:16:42.227Z,14.07
2023-07-14T00:19:28.141Z,15.27
2023-07-14T00:22:13.612Z,14.77
2023-07-14T00:24:56.685Z,15.70
2023-07-14T00:27:39.956Z,15.13
2023-07-14T00:30:25.543Z,14.93
2023-07-14T00:33:14.063Z,15.73
2023-07-14T00:35:58.548Z,16.67
2023-07-14T00:38:42.531Z,15.20
2023-07-14T00:41:26.149Z,15.73
2023-07-14T00:44:12.892Z,15.63
2023-07-14T00:46:56.030Z,16.57
2023-07-14T00:49:42.090Z,16.50
2023-07-14T00:52:30.761Z,18.60
2023-07-14T00:55:31.665Z,17.60
2023-07-14T00:58:20.644Z,17.10
2023-07-14T01:01:07.061Z,17.63
2023-07-14T01:03:52.714Z,16.83
2023-07-14T01:06:39.605Z,16.93
2023-07-14T01:09:24.149Z,17.17
2023-07-14T01:12:09.396Z,16.43
2023-07-14T01:14:56.797Z,16.00
2023-07-14T01:17:40.710Z,16.20
2023-07-14T01:20:24.081Z,16.20
2023-07-14T01:23:35.230Z,16.33
2023-07-14T01:26:31.337Z,16.37
2023-07-14T01:29:15.885Z,15.57
2023-07-14T01:31:59.199Z,16.87
2023-07-14T01:34:42.277Z,18.00
2023-07-14T01:37:25.951Z,17.60
2023-07-14T01:40:13.651Z,16.80
2023-07-14T01:43:00.508Z,16.83
2023-07-14T01:46:00.037Z,16.20
2023-07-14T01:48:54.457Z,17.20
2023-07-14T01:51:44.247Z,17.33
2023-07-14T01:54:33.553Z,17.70
2023-07-14T01:57:21.067Z,17.20
2023-07-14T02:00:11.102Z,17.27
2023-07-14T02:02:56.800Z,17.10
2023-07-14T02:05:40.888Z,17.70
2023-07-14T02:08:26.020Z,16.17
2023-07-14T02:11:15.890Z,17.23
2023-07-14T02:14:00.023Z,15.67
2023-07-14T02:16:43.519Z,17.50
2023-07-14T02:19:28.582Z,17.23
2023-07-14T02:22:12.062Z,17.40
2023-07-14T02:24:56.706Z,17.93
2023-07-14T02:27:39.765Z,18.70
2023-07-14T02:30:27.506Z,18.53
2023-07-14T02:33:15.377Z,16.80
2023-07-14T02:36:08.768Z,18.33
2023-07-14T02:38:51.953Z,16.43
2023-07-14T02:41:39.582Z,18.33
2023-07-14T02:44:28.283Z,17.83
2023-07-14T02:47:17.396Z,18.13
2023-07-14T02:50:00.546Z,17.90
2023-07-14T02:52:45.097Z,18.27
2023-07-14T02:55:28.305Z,17.20
2023-07-14T02:58:11.419Z,18.27
2023-07-14T03:00:55.132Z,17.57
2023-07-14T03:03:40.355Z,18.73
2023-07-14T03:06:24.403Z,19.37
2023-07-14T03:09:09.369Z,21.70
2023-07-14T03:11:52.514Z,19.80
2023-07-14T03:14:35.936Z,27.13
2023-07-14T03:17:19.051Z,19.30
2023-07-14T03:20:02.202Z,19.83
2023-07-14T03:22:45.537Z,20.07
2023-07-14T03:25:30.317Z,20.87
2023-07-14T03:28:13.457Z,21.20
2023-07-14T03:30:56.550Z,19.23
2023-07-14T03:33:40.797Z,20.30
2023-07-14T03:36:24.973Z,20.07
2023-07-14T03:39:23.168Z,19.90
2023-07-14T03:42:08.048Z,21.13
2023-07-14T03:44:51.229Z,20.17
2023-07-14T03:47:34.401Z,20.37
2023-07-14T03:50:17.696Z,20.20
2023-07-14T03:53:00.761Z,19.73
2023-07-14T03:55:43.843Z,18.33
2023-07-14T03:58:29.555Z,23.27
2023-07-14T04:01:13.019Z,20.10
2023-07-14T04:03:58.562Z,20.30
2023-07-14T04:06:44.227Z,22.57
2023-07-14T04:09:27.420Z,21.37
2023-07-14T04:12:10.756Z,21.30
2023-07-14T04:14:55.221Z,21.53
2023-07-14T04:17:38.828Z,20.60
2023-07-14T04:20:21.960Z,22.43
2023-07-14T04:23:06.616Z,21.90
2023-07-14T04:25:51.820Z,24.90
2023-07-14T04:28:34.908Z,21.80
2023-07-14T04:31:19.516Z,22.33
2023-07-14T04:34:02.669Z,20.63
2023-07-14T04:36:47.661Z,22.10
2023-07-14T04:39:31.203Z,22.17
2023-07-14T04:42:14.237Z,21.57
2023-07-14T04:44:57.299Z,21.13
2023-07-14T04:47:41.747Z,20.47
2023-07-14T04:50:24.876Z,20.20
2023-07-14T04:53:08.790Z,19.60
2023-07-14T04:55:51.943Z,19.10
2023-07-14T04:58:35.036Z,19.00
2023-07-14T05:01:18.181Z,16.90
2023-07-14T05:04:02.845Z,20.07
2023-07-14T05:06:46.284Z,19.03
2023-07-14T05:09:29.540Z,17.63
2023-07-14T05:12:12.533Z,20.00
2023-07-14T05:14:55.697Z,17.80
2023-07-14T05:17:39.113Z,17.10
2023-07-14T05:20:24.088Z,22.37
2023-07-14T05:23:07.202Z,19.83
2023-07-14T05:25:50.344Z,18.17
2023-07-14T05:28:33.521Z,21.27
2023-07-14T05:31:16.837Z,19.53
2023-07-14T05:34:00.114Z,19.87
2023-07-14T05:36:44.595Z,18.63
2023-07-14T05:39:27.812Z,15.90
2023-07-14T05:42:11.204Z,19.53
2023-07-14T05:44:54.298Z,23.93
2023-07-14T05:47:40.756Z,17.27
2023-07-14T05:50:23.922Z,18.67
2023-07-14T05:53:09.995Z,19.23
2023-07-14T05:55:53.620Z,16.97
2023-07-14T05:58:36.680Z,18.97
2023-07-14T06:01:19.773Z,18.63
2023-07-14T06:04:03.002Z,16.47
2023-07-14T06:06:46.166Z,17.20
2023-07-14T06:09:35.219Z,19.33
2023-07-14T06:12:18.328Z,17.80
2023-07-14T06:15:01.835Z,18.23
2023-07-14T06:17:44.878Z,19.07
2023-07-14T06:20:30.798Z,18.23
2023-07-14T06:23:15.535Z,21.40
2023-07-14T06:26:00.373Z,18.50
2023-07-14T06:28:43.960Z,16.83
2023-07-14T06:31:27.296Z,16.67
2023-07-14T06:34:10.480Z,16.43
2023-07-14T06:36:54.718Z,18.53
2023-07-14T06:39:38.862Z,17.17
2023-07-14T06:42:23.606Z,17.10
2023-07-14T06:45:07.383Z,20.40
2023-07-14T06:47:50.800Z,16.70
2023-07-14T06:50:33.783Z,15.90
2023-07-14T06:53:16.891Z,15.53
2023-07-14T06:55:59.974Z,15.47
2023-07-14T06:58:44.714Z,15.70
2023-07-14T07:01:27.954Z,22.53
2023-07-14T07:04:11.061Z,14.77
2023-07-14T07:06:55.065Z,15.03
2023-07-14T07:09:38.225Z,14.83
2023-07-14T07:12:22.449Z,14.67
2023-07-14T07:15:08.483Z,13.60
2023-07-14T07:17:51.617Z,14.63
2023-07-14T07:20:43.031Z,15.10
2023-07-14T07:23:26.662Z,16.20
2023-07-14T07:26:10.382Z,15.80
2023-07-14T07:28:53.838Z,16.33
2023-07-14T07:31:38.399Z,16.63
2023-07-14T07:34:21.639Z,15.07
2023-07-14T07:37:04.864Z,15.40
2023-07-14T07:39:48.191Z,15.27
2023-07-14T07:42:31.365Z,15.23
2023-07-14T07:45:14.982Z,15.10
2023-07-14T07:47:59.508Z,16.03
2023-07-14T07:50:42.673Z,14.90
2023-07-14T07:53:25.750Z,14.23
2023-07-14T07:56:09.459Z,15.00
2023-07-14T07:58:52.719Z,14.43
2023-07-14T08:01:36.076Z,13.77
2023-07-14T08:04:20.888Z,13.30
2023-07-14T08:07:04.181Z,11.97
2023-07-14T08:09:47.347Z,12.13
2023-07-14T08:12:30.437Z,12.87
2023-07-14T08:15:13.903Z,11.57
2023-07-14T08:17:57.695Z,12.50
2023-07-14T08:20:42.256Z,11.70
2023-07-14T08:23:28.233Z,11.20
2023-07-14T08:26:17.338Z,12.27
2023-07-14T08:29:00.520Z,11.88
2023-07-14T08:31:43.582Z,12.27
2023-07-14T08:34:28.505Z,11.65
2023-07-14T08:37:13.044Z,10.60
2023-07-14T08:39:56.132Z,11.20
2023-07-14T08:42:45.524Z,10.73
2023-07-14T08:45:38.963Z,10.27
2023-07-14T08:48:32.036Z,10.90
2023-07-14T08:51:20.033Z,10.40
2023-07-14T08:54:13.911Z,11.32
2023-07-14T08:56:57.175Z,10.00
2023-07-14T08:59:42.740Z,10.40
2023-07-14T09:02:35.206Z,10.30
2023-07-14T09:05:22.875Z,11.60
2023-07-14T09:08:06.357Z,11.02
2023-07-14T09:11:04.774Z,10.80
2023-07-14T09:13:57.260Z,10.73
2023-07-14T09:16:58.153Z,13.60
2023-07-14T09:19:56.140Z,10.50
2023-07-14T09:22:48.662Z,9.80
2023-07-14T09:25:38.113Z,11.00
2023-07-14T09:28:34.523Z,10.93
2023-07-14T09:31:40.352Z,10.82
2023-07-14T09:34:29.585Z,10.10
2023-07-14T09:37:19.804Z,10.32
2023-07-14T09:40:19.108Z,9.73
2023-07-14T09:43:04.313Z,10.50
2023-07-14T09:45:48.816Z,10.88
2023-07-14T09:48:35.224Z,10.23
2023-07-14T09:51:22.697Z,10.88
2023-07-14T09:54:13.331Z,10.20
2023-07-14T09:57:02.573Z,10.52
2023-07-14T09:59:55.232Z,10.65
2023-07-14T10:02:40.289Z,10.45
2023-07-14T10:05:35.641Z,10.52
2023-07-14T10:08:28.388Z,10.73
2023-07-14T10:11:21.348Z,10.10
2023-07-14T10:14:06.865Z,11.77
2023-07-14T10:16:50.416Z,10.70
2023-07-14T10:19:41.559Z,10.85
2023-07-14T10:22:26.840Z,11.10
2023-07-14T10:25:18.797Z,10.70
2023-07-14T10:28:07.466Z,10.73
2023-07-14T10:31:01.363Z,12.25
2023-07-14T10:33:58.640Z,10.60
2023-07-14T10:36:45.982Z,11.27
2023-07-14T10:39:39.510Z,11.10
2023-07-14T10:42:27.839Z,12.10
2023-07-14T10:45:14.508Z,10.98
2023-07-14T10:48:01.048Z,11.73
2023-07-14T10:50:56.994Z,11.18
2023-07-14T10:53:50.989Z,11.75
2023-07-14T10:56:39.446Z,15.80
2023-07-14T10:59:28.065Z,12.52
2023-07-14T11:02:22.354Z,15.80
2023-07-14T11:05:10.997Z,11.83
2023-07-14T11:07:55.214Z,13.53
2023-07-14T11:10:48.927Z,13.10
2023-07-14T11:13:45.010Z,12.93
2023-07-14T11:16:35.298Z,14.33
2023-07-14T11:19:41.242Z,13.70
2023-07-14T11:22:46.413Z,14.17
2023-07-14T11:25:39.703Z,13.53
2023-07-14T11:28:42.435Z,13.67
2023-07-14T11:31:29.192Z,14.20
2023-07-14T11:34:21.427Z,15.07
2023-07-14T11:37:26.790Z,14.87
2023-07-14T11:40:21.376Z,19.80
2023-07-14T11:43:05.158Z,14.63
2023-07-14T11:45:56.362Z,15.60
2023-07-14T11:48:41.387Z,15.57
2023-07-14T11:51:49.208Z,13.23
2023-07-14T11:54:44.019Z,13.70
2023-07-14T11:57:27.384Z,16.70
2023-07-14T12:00:24.916Z,14.03
2023-07-14T12:03:34.158Z,15.97
2023-07-14T12:06:29.767Z,15.07
2023-07-14T12:09:17.998Z,13.70
2023-07-14T12:12:02.840Z,13.67
2023-07-14T12:14:49.876Z,13.67
2023-07-14T12:17:49.018Z,14.03
2023-07-14T12:20:38.540Z,14.17
2023-07-14T12:23:29.519Z,13.10
2023-07-14T12:26:16.032Z,14.13
2023-07-14T12:29:03.456Z,14.60
2023-07-14T12:31:51.474Z,14.53
2023-07-14T12:34:34.688Z,12.90
2023-07-14T12:37:21.617Z,14.20
2023-07-14T12:40:06.443Z,14.20
2023-07-14T12:42:51.694Z,16.27
2023-07-14T12:45:36.535Z,14.47
2023-07-14T12:48:19.766Z,17.37
2023-07-14T12:51:14.967Z,27.43
2023-07-14T12:54:06.168Z,13.13
2023-07-14T12:56:49.241Z,17.27
2023-07-14T12:59:33.235Z,13.63
2023-07-14T13:02:16.563Z,13.60
2023-07-14T13:04:59.672Z,14.40
2023-07-14T13:07:46.807Z,18.10
2023-07-14T13:10:37.037Z,14.00
2023-07-14T13:13:24.345Z,13.30
2023-07-14T13:16:08.388Z,13.93
2023-07-14T13:18:59.486Z,16.07
2023-07-14T13:21:49.551Z,17.83
2023-07-14T13:24:34.249Z,14.57
2023-07-14T13:27:21.974Z,14.97
2023-07-14T13:30:19.384Z,14.30
2023-07-14T13:33:03.482Z,14.70
2023-07-14T13:35:57.372Z,14.80
2023-07-14T13:38:43.864Z,15.97
2023-07-14T13:41:29.224Z,16.07
2023-07-14T13:44:36.434Z,14.03
2023-07-14T13:47:21.066Z,14.47
2023-07-14T13:50:04.292Z,17.67
2023-07-14T13:52:47.755Z,14.93
2023-07-14T13:55:30.894Z,14.40
2023-07-14T13:58:14.510Z,15.27
2023-07-14T14:00:59.066Z,14.20
2023-07-14T14:03:46.677Z,15.33
2023-07-14T14:06:31.632Z,15.27
2023-07-14T14:09:21.601Z,14.77
2023-07-14T14:12:05.254Z,15.57
2023-07-14T14:14:48.622Z,23.63
2023-07-14T14:17:38.432Z,16.73
2023-07-14T14:20:24.647Z,17.13
2023-07-14T14:23:08.191Z,17.33
2023-07-14T14:25:52.271Z,16.07
2023-07-14T14:28:35.332Z,22.77
2023-07-14T14:31:18.377Z,15.53
2023-07-14T14:34:03.270Z,22.97
2023-07-14T14:36:46.563Z,16.63
2023-07-14T14:39:29.654Z,16.37
2023-07-14T14:42:16.266Z,16.10
2023-07-14T14:44:59.379Z,16.27
2023-07-14T14:47:44.707Z,16.37
2023-07-14T14:50:30.626Z,16.30
2023-07-14T14:53:13.980Z,17.87
2023-07-14T14:56:03.115Z,17.67
2023-07-14T14:58:47.180Z,16.97
2023-07-14T15:01:35.145Z,15.93
2023-07-14T15:04:20.336Z,18.33
2023-07-14T15:07:05.107Z,15.47
2023-07-14T15:09:48.221Z,16.33
2023-07-14T15:12:31.346Z,15.43
2023-07-14T15:15:22.646Z,25.00
2023-07-14T15:18:06.228Z,15.63
2023-07-14T15:20:49.341Z,15.23
2023-07-14T15:23:34.822Z,33.77
2023-07-14T15:26:21.281Z,13.80
2023-07-14T15:29:06.645Z,15.57
2023-07-14T15:31:50.789Z,15.37
2023-07-14T15:34:33.902Z,14.70
2023-07-14T15:37:17.025Z,15.60
2023-07-14T15:40:01.530Z,14.97
2023-07-14T15:42:45.552Z,18.03
2023-07-14T15:45:29.306Z,16.17
2023-07-14T15:48:21.758Z,15.83
2023-07-14T15:51:17.452Z,19.17
2023-07-14T15:54:03.036Z,15.23
2023-07-14T15:56:47.576Z,26.43
2023-07-14T15:59:30.920Z,16.80
2023-07-14T16:02:17.964Z,15.60
2023-07-14T16:05:01.144Z,28.93
2023-07-14T16:07:47.264Z,16.23
2023-07-14T16:10:30.986Z,16.77
2023-07-14T16:13:16.756Z,15.80
2023-07-14T16:15:59.855Z,17.60
2023-07-14T16:18:44.760Z,15.67
2023-07-14T16:21:30.245Z,15.47
2023-07-14T16:24:20.409Z,16.13
2023-07-14T16:27:05.709Z,15.93
2023-07-14T16:29:50.366Z,15.50
2023-07-14T16:32:33.484Z,17.43
2023-07-14T16:35:17.548Z,15.53
2023-07-14T16:38:03.949Z,15.87
2023-07-14T16:40:48.924Z,17.20
2023-07-14T16:43:32.023Z,16.27
2023-07-14T16:46:16.718Z,15.10
2023-07-14T16:49:00.225Z,15.50
2023-07-14T16:51:43.361Z,15.27
2023-07-14T16:54:28.774Z,16.20
2023-07-14T16:57:27.402Z,15.60
2023-07-14T17:00:27.222Z,15.63
2023-07-14T17:03:20.335Z,17.57
2023-07-14T17:06:07.948Z,16.07
2023-07-14T17:08:53.649Z,21.73
2023-07-14T17:11:38.604Z,21.07
2023-07-14T17:14:23.678Z,19.10
2023-07-14T17:17:07.096Z,14.47
2023-07-14T17:19:51.619Z,16.83
2023-07-14T17:22:41.446Z,20.60
2023-07-14T17:25:28.030Z,19.30
2023-07-14T17:28:16.808Z,14.67
2023-07-14T17:31:01.521Z,14.63
2023-07-14T17:33:44.655Z,15.50
2023-07-14T17:36:30.683Z,17.17
2023-07-14T17:39:22.956Z,14.03
2023-07-14T17:42:15.305Z,14.27
2023-07-14T17:44:58.395Z,16.17
2023-07-14T17:47:41.536Z,14.87
2023-07-14T17:50:25.406Z,17.97
2023-07-14T17:53:13.917Z,19.37
2023-07-14T17:55:58.262Z,20.90
2023-07-14T17:58:41.419Z,17.43
2023-07-14T18:01:24.692Z,16.17
2023-07-14T18:04:07.792Z,18.60
2023-07-14T18:06:51.390Z,19.37
2023-07-14T18:09:35.888Z,18.53
2023-07-14T18:12:20.289Z,28.00
2023-07-14T18:15:04.886Z,15.87
2023-07-14T18:17:48.106Z,18.30
2023-07-14T18:20:34.469Z,17.40
2023-07-14T18:23:22.343Z,17.07
2023-07-14T18:26:06.924Z,23.43
2023-07-14T18:28:50.140Z,18.03
2023-07-14T18:31:33.329Z,17.67
2023-07-14T18:34:18.587Z,15.07
2023-07-14T18:37:02.142Z,16.70
2023-07-14T18:39:48.154Z,16.07
2023-07-14T18:42:33.163Z,23.77
2023-07-14T18:45:17.735Z,15.47
2023-07-14T18:48:16.963Z,15.23
2023-07-14T18:51:15.106Z,19.33
2023-07-14T18:54:00.832Z,16.97
2023-07-14T18:56:43.919Z,15.07
2023-07-14T18:59:29.362Z,19.50
2023-07-14T19:02:28.169Z,14.93
2023-07-14T19:05:13.867Z,17.07
2023-07-14T19:07:57.639Z,14.13
2023-07-14T19:10:41.494Z,22.70
2023-07-14T19:13:24.730Z,12.80
2023-07-14T19:16:10.809Z,16.30
2023-07-14T19:18:54.379Z,14.03
2023-07-14T19:21:37.633Z,15.13
2023-07-14T19:24:21.384Z,15.93
2023-07-14T19:27:04.934Z,16.27
2023-07-14T19:29:49.308Z,15.13
2023-07-14T19:32:34.862Z,21.90
2023-07-14T19:35:19.718Z,15.30
2023-07-14T19:38:02.736Z,14.50
2023-07-14T19:40:46.127Z,15.53
2023-07-14T19:43:29.641Z,19.90
2023-07-14T19:46:14.172Z,13.60
2023-07-14T19:49:00.396Z,15.50
2023-07-14T19:51:45.765Z,14.87
2023-07-14T19:54:28.833Z,17.67
2023-07-14T19:57:16.252Z,13.20
2023-07-14T19:59:59.456Z,18.00
2023-07-14T20:02:45.475Z,17.27
2023-07-14T20:05:30.225Z,14.13
2023-07-14T20:08:13.412Z,15.80
2023-07-14T20:11:00.677Z,16.67
2023-07-14T20:13:44.696Z,15.30
2023-07-14T20:16:28.703Z,17.87
2023-07-14T20:19:11.805Z,16.93
2023-07-14T20:21:56.304Z,13.80
2023-07-14T20:24:39.374Z,14.23
2023-07-14T20:27:24.315Z,14.80
2023-07-14T20:30:15.248Z,14.30
2023-07-14T20:32:58.408Z,16.60
2023-07-14T20:35:41.637Z,16.63
2023-07-14T20:38:27.529Z,18.33
2023-07-14T20:41:19.824Z,19.53
2023-07-14T20:44:03.443Z,17.60
2023-07-14T20:46:46.635Z,17.77
2023-07-14T20:49:29.703Z,19.07
2023-07-14T20:52:20.081Z,19.63
2023-07-14T20:55:06.921Z,19.37
2023-07-14T20:57:52.237Z,19.50
2023-07-14T21:00:35.420Z,20.00
2023-07-14T21:03:21.510Z,20.30
2023-07-14T21:06:05.701Z,22.60
2023-07-14T21:08:49.448Z,22.77
2023-07-14T21:11:33.938Z,21.43
2023-07-14T21:14:18.438Z,20.93
2023-07-14T21:17:01.659Z,20.97
2023-07-14T21:19:44.782Z,20.10
2023-07-14T21:22:30.581Z,19.83
2023-07-14T21:25:18.370Z,18.43
2023-07-14T21:28:02.881Z,17.53
2023-07-14T21:30:48.090Z,17.90
2023-07-14T21:33:33.856Z,18.00
2023-07-14T21:36:19.965Z,17.87
2023-07-14T21:39:03.057Z,17.90
2023-07-14T21:41:46.164Z,19.07
2023-07-14T21:44:31.122Z,18.37
2023-07-14T21:47:14.738Z,18.60
2023-07-14T21:49:57.921Z,18.50
2023-07-14T21:52:40.986Z,18.97
2023-07-14T21:55:24.120Z,18.13
2023-07-14T21:58:14.299Z,18.67
2023-07-14T22:01:00.425Z,18.90
2023-07-14T22:03:43.762Z,18.37
2023-07-14T22:06:29.507Z,18.30
2023-07-14T22:09:12.711Z,18.43
2023-07-14T22:11:56.286Z,17.93
2023-07-14T22:14:40.059Z,18.53
2023-07-14T22:17:24.636Z,18.73
2023-07-14T22:20:09.615Z,18.47
2023-07-14T22:22:52.718Z,19.40
2023-07-14T22:25:35.847Z,19.93
2023-07-14T22:28:22.233Z,18.50
2023-07-14T22:31:05.381Z,19.03
2023-07-14T22:33:50.803Z,19.77
2023-07-14T22:36:33.967Z,20.27
2023-07-14T22:39:20.228Z,18.57
2023-07-14T22:42:04.046Z,19.30
2023-07-14T22:44:47.120Z,18.80
2023-07-14T22:47:30.185Z,18.63
2023-07-14T22:50:16.591Z,20.03
2023-07-14T22:52:59.621Z,20.07
2023-07-14T22:55:42.733Z,20.13
2023-07-14T22:58:28.939Z,20.30
2023-07-14T23:01:17.992Z,19.43
2023-07-14T23:04:01.528Z,20.40
2023-07-14T23:06:45.968Z,20.07
2023-07-14T23:09:29.007Z,20.63
2023-07-14T23:12:17.040Z,20.03
2023-07-14T23:15:00.145Z,21.27
2023-07-14T23:17:43.426Z,20.67
2023-07-14T23:20:26.462Z,19.60
2023-07-14T23:23:13.301Z,20.23
2023-07-14T23:25:57.392Z,20.10
2023-07-14T23:28:41.038Z,20.97
2023-07-14T23:31:27.557Z,20.83
2023-07-14T23:34:12.520Z,20.20
2023-07-14T23:36:55.740Z,20.60
2023-07-14T23:39:40.255Z,20.57
2023-07-14T23:42:23.384Z,20.53
2023-07-14T23:45:09.688Z,21.27
2023-07-14T23:47:54.179Z,20.50
2023-07-14T23:50:38.627Z,19.77
2023-07-14T23:53:33.994Z,20.87
2023-07-14T23:56:18.574Z,21.33
2023-07-14T23:59:01.765Z,20.80
